Zamboanga International Airport
RPMZ : now visible

Aeroporto :











RITROVATECI SU...

 
LOGIN :

Iscrizione | Disclaimer

   EN    FR    IT 

 









Sommario :    VFR   VFR Marginale   IFR   IFR Intensivo   IFR Molto Intensivo
Visibilità : 
Base nubi : 
>= 8 km
>= 3000ft
5 / 8 km
1000 / 3000 ft
1500m / 5 km
500 / 1000 ft
800 / 1500m
200 / 500 ft
< 800m
< 200 ft
Simboli :   Temporali  Nebbia  Neve Forte  Precipitazioni Forti  Vento > 20 kt






- Altitudine del aeroporto : 33 ft
- Codice IATA : ZAM


RPMZ - Zamboanga International

METARs OBSOLETI :
  • 291200Z 08004KT 9999 FEW017 BKN090 28/23 Q1009 RMK A2980

TAF TAF RPMZ
Valido dal 29 a 12 ore il 01 a 12 ore UTC


291100Z 2912/0112 09005KT 9999 FEW017 SCT090
TEMPO 2912/2918 07004KT FEW017 BKN090
TEMPO 0104/0109 26008KT FEW016CB FEW017 BKN300



MetMap, La meteo Aeronautica in un colpo d'occhio ! - Copyright ORBIFLY Dicembre 2007 - Disclaimer

ORBIFLY MET'MAP TEAM :

Programmazione e sviluppo : Alexandra Zaïnal
Concezione : Baudouin d'Aumeries
Aiuto per la programmazione : Marc-Olivier Méhu
Supporto tecnico e logistico : Manuel Goepfert
Aiuto per la traduzione : Arnaldo La Scala

Contatto : metmap@orbifly.com




FONTI E CREDITI :

   NOAA       Earth
Advisory